sensor_id;sensor_type;location;lat;lon;timestamp;P1;durP1;ratioP1;P2;durP2;ratioP2
40951;SDS011;26682;51.660;19.338;2023-03-23T00:00:00;32.33;;;22.70;;
40951;SDS011;26682;51.660;19.338;2023-03-23T00:02:42;32.40;;;26.80;;
40951;SDS011;26682;51.660;19.338;2023-03-23T00:05:24;28.92;;;20.83;;
40951;SDS011;26682;51.660;19.338;2023-03-23T00:08:05;29.15;;;21.88;;
40951;SDS011;26682;51.660;19.338;2023-03-23T00:10:49;32.42;;;23.40;;
40951;SDS011;26682;51.660;19.338;2023-03-23T00:13:37;37.00;;;30.10;;
40951;SDS011;26682;51.660;19.338;2023-03-23T00:16:22;27.05;;;18.38;;
40951;SDS011;26682;51.660;19.338;2023-03-23T00:19:12;25.73;;;21.55;;
40951;SDS011;26682;51.660;19.338;2023-03-23T00:21:53;27.80;;;22.35;;
40951;SDS011;26682;51.660;19.338;2023-03-23T00:24:35;28.98;;;21.88;;
40951;SDS011;26682;51.660;19.338;2023-03-23T00:27:17;28.20;;;19.13;;
40951;SDS011;26682;51.660;19.338;2023-03-23T00:29:59;23.75;;;17.77;;
40951;SDS011;26682;51.660;19.338;2023-03-23T00:32:40;26.13;;;17.80;;
40951;SDS011;26682;51.660;19.338;2023-03-23T00:35:23;24.10;;;17.67;;
40951;SDS011;26682;51.660;19.338;2023-03-23T00:38:04;24.55;;;17.65;;
40951;SDS011;26682;51.660;19.338;2023-03-23T00:40:46;26.60;;;18.08;;
40951;SDS011;26682;51.660;19.338;2023-03-23T00:43:30;25.20;;;18.17;;
40951;SDS011;26682;51.660;19.338;2023-03-23T00:46:12;22.40;;;17.40;;
40951;SDS011;26682;51.660;19.338;2023-03-23T00:48:54;25.42;;;17.30;;
40951;SDS011;26682;51.660;19.338;2023-03-23T00:51:37;24.23;;;18.00;;
40951;SDS011;26682;51.660;19.338;2023-03-23T00:54:19;23.70;;;18.15;;
40951;SDS011;26682;51.660;19.338;2023-03-23T00:57:04;21.80;;;17.98;;
40951;SDS011;26682;51.660;19.338;2023-03-23T00:59:46;24.23;;;16.75;;
40951;SDS011;26682;51.660;19.338;2023-03-23T01:02:29;25.80;;;17.48;;
40951;SDS011;26682;51.660;19.338;2023-03-23T01:05:11;25.95;;;17.10;;
40951;SDS011;26682;51.660;19.338;2023-03-23T01:07:52;23.25;;;17.08;;
40951;SDS011;26682;51.660;19.338;2023-03-23T01:10:33;23.02;;;17.27;;
40951;SDS011;26682;51.660;19.338;2023-03-23T01:13:19;24.43;;;17.97;;
40951;SDS011;26682;51.660;19.338;2023-03-23T01:16:03;22.30;;;15.75;;
40951;SDS011;26682;51.660;19.338;2023-03-23T01:18:44;23.08;;;15.32;;
40951;SDS011;26682;51.660;19.338;2023-03-23T01:21:25;22.73;;;15.68;;
40951;SDS011;26682;51.660;19.338;2023-03-23T01:24:07;23.13;;;16.23;;
40951;SDS011;26682;51.660;19.338;2023-03-23T01:26:48;24.95;;;16.77;;
40951;SDS011;26682;51.660;19.338;2023-03-23T01:29:30;23.20;;;16.73;;
40951;SDS011;26682;51.660;19.338;2023-03-23T01:32:11;24.27;;;16.33;;
40951;SDS011;26682;51.660;19.338;2023-03-23T01:34:53;22.48;;;15.40;;
40951;SDS011;26682;51.660;19.338;2023-03-23T01:37:35;20.40;;;15.50;;
40951;SDS011;26682;51.660;19.338;2023-03-23T01:40:17;20.65;;;16.15;;
40951;SDS011;26682;51.660;19.338;2023-03-23T01:42:59;22.35;;;16.05;;
40951;SDS011;26682;51.660;19.338;2023-03-23T01:45:41;23.02;;;16.35;;
40951;SDS011;26682;51.660;19.338;2023-03-23T01:48:29;26.20;;;16.10;;
40951;SDS011;26682;51.660;19.338;2023-03-23T01:51:17;27.20;;;16.05;;
40951;SDS011;26682;51.660;19.338;2023-03-23T01:54:05;21.60;;;15.10;;
40951;SDS011;26682;51.660;19.338;2023-03-23T01:57:10;34.83;;;23.98;;
40951;SDS011;26682;51.660;19.338;2023-03-23T01:59:59;25.38;;;19.00;;
40951;SDS011;26682;51.660;19.338;2023-03-23T02:02:55;22.15;;;16.92;;
40951;SDS011;26682;51.660;19.338;2023-03-23T02:05:38;20.42;;;14.75;;
40951;SDS011;26682;51.660;19.338;2023-03-23T02:08:38;20.92;;;14.43;;
40951;SDS011;26682;51.660;19.338;2023-03-23T02:11:22;21.42;;;15.10;;
40951;SDS011;26682;51.660;19.338;2023-03-23T02:14:03;20.13;;;14.07;;
40951;SDS011;26682;51.660;19.338;2023-03-23T02:17:45;19.10;;;14.90;;
40951;SDS011;26682;51.660;19.338;2023-03-23T02:26:38;21.73;;;15.98;;
40951;SDS011;26682;51.660;19.338;2023-03-23T02:32:04;24.83;;;17.98;;
40951;SDS011;26682;51.660;19.338;2023-03-23T02:35:17;27.40;;;18.48;;
40951;SDS011;26682;51.660;19.338;2023-03-23T02:38:04;26.35;;;17.58;;
40951;SDS011;26682;51.660;19.338;2023-03-23T02:40:53;24.77;;;17.17;;
40951;SDS011;26682;51.660;19.338;2023-03-23T02:43:40;26.83;;;17.45;;
40951;SDS011;26682;51.660;19.338;2023-03-23T02:46:25;24.27;;;16.90;;
40951;SDS011;26682;51.660;19.338;2023-03-23T02:49:09;28.25;;;17.75;;
40951;SDS011;26682;51.660;19.338;2023-03-23T02:51:53;27.25;;;18.55;;
40951;SDS011;26682;51.660;19.338;2023-03-23T02:54:37;25.52;;;18.00;;
40951;SDS011;26682;51.660;19.338;2023-03-23T02:57:19;21.50;;;14.68;;
40951;SDS011;26682;51.660;19.338;2023-03-23T03:00:03;19.17;;;13.13;;
40951;SDS011;26682;51.660;19.338;2023-03-23T03:02:51;18.55;;;13.13;;
40951;SDS011;26682;51.660;19.338;2023-03-23T03:09:02;33.72;;;18.67;;
40951;SDS011;26682;51.660;19.338;2023-03-23T03:12:05;33.25;;;16.77;;
40951;SDS011;26682;51.660;19.338;2023-03-23T03:15:10;33.92;;;18.33;;
40951;SDS011;26682;51.660;19.338;2023-03-23T03:18:16;35.80;;;18.38;;
40951;SDS011;26682;51.660;19.338;2023-03-23T03:21:07;28.95;;;15.75;;
40951;SDS011;26682;51.660;19.338;2023-03-23T03:23:55;40.88;;;20.83;;
40951;SDS011;26682;51.660;19.338;2023-03-23T03:26:43;38.40;;;20.77;;
40951;SDS011;26682;51.660;19.338;2023-03-23T03:29:37;36.22;;;20.08;;
40951;SDS011;26682;51.660;19.338;2023-03-23T03:32:25;28.23;;;17.80;;
40951;SDS011;26682;51.660;19.338;2023-03-23T03:35:14;28.08;;;17.48;;
40951;SDS011;26682;51.660;19.338;2023-03-23T03:37:56;32.75;;;19.08;;
40951;SDS011;26682;51.660;19.338;2023-03-23T03:40:38;25.83;;;17.10;;
40951;SDS011;26682;51.660;19.338;2023-03-23T03:43:20;24.10;;;17.52;;
40951;SDS011;26682;51.660;19.338;2023-03-23T03:46:02;32.88;;;22.33;;
40951;SDS011;26682;51.660;19.338;2023-03-23T03:48:43;23.30;;;16.42;;
40951;SDS011;26682;51.660;19.338;2023-03-23T03:51:26;23.73;;;14.98;;
40951;SDS011;26682;51.660;19.338;2023-03-23T03:54:08;25.25;;;16.73;;
40951;SDS011;26682;51.660;19.338;2023-03-23T03:56:51;31.00;;;19.65;;
40951;SDS011;26682;51.660;19.338;2023-03-23T03:59:57;46.17;;;28.00;;
40951;SDS011;26682;51.660;19.338;2023-03-23T04:02:56;39.22;;;24.38;;
40951;SDS011;26682;51.660;19.338;2023-03-23T04:06:10;21.98;;;15.93;;
40951;SDS011;26682;51.660;19.338;2023-03-23T04:08:54;25.23;;;14.30;;
40951;SDS011;26682;51.660;19.338;2023-03-23T04:11:36;26.02;;;13.90;;
40951;SDS011;26682;51.660;19.338;2023-03-23T04:14:41;29.60;;;15.65;;
40951;SDS011;26682;51.660;19.338;2023-03-23T04:17:22;30.55;;;17.73;;
40951;SDS011;26682;51.660;19.338;2023-03-23T04:20:07;28.88;;;15.13;;
40951;SDS011;26682;51.660;19.338;2023-03-23T04:22:54;22.88;;;12.90;;
40951;SDS011;26682;51.660;19.338;2023-03-23T04:25:38;16.17;;;10.63;;
40951;SDS011;26682;51.660;19.338;2023-03-23T04:28:22;16.30;;;11.38;;
40951;SDS011;26682;51.660;19.338;2023-03-23T04:31:27;16.50;;;11.07;;
40951;SDS011;26682;51.660;19.338;2023-03-23T04:34:18;14.93;;;11.60;;
40951;SDS011;26682;51.660;19.338;2023-03-23T04:37:02;19.02;;;12.93;;
40951;SDS011;26682;51.660;19.338;2023-03-23T04:39:45;19.65;;;12.20;;
40951;SDS011;26682;51.660;19.338;2023-03-23T04:42:29;20.98;;;11.52;;
40951;SDS011;26682;51.660;19.338;2023-03-23T04:45:29;21.63;;;12.30;;
40951;SDS011;26682;51.660;19.338;2023-03-23T04:48:14;15.32;;;11.20;;
40951;SDS011;26682;51.660;19.338;2023-03-23T04:51:07;16.42;;;11.57;;
40951;SDS011;26682;51.660;19.338;2023-03-23T04:53:49;15.25;;;10.50;;
40951;SDS011;26682;51.660;19.338;2023-03-23T04:56:31;18.42;;;10.93;;
40951;SDS011;26682;51.660;19.338;2023-03-23T04:59:22;22.95;;;10.93;;
40951;SDS011;26682;51.660;19.338;2023-03-23T05:02:28;20.00;;;14.15;;
40951;SDS011;26682;51.660;19.338;2023-03-23T05:05:14;22.70;;;14.13;;
40951;SDS011;26682;51.660;19.338;2023-03-23T05:07:56;17.70;;;11.88;;
40951;SDS011;26682;51.660;19.338;2023-03-23T05:10:40;15.35;;;10.25;;
40951;SDS011;26682;51.660;19.338;2023-03-23T05:13:27;18.98;;;11.20;;
40951;SDS011;26682;51.660;19.338;2023-03-23T05:16:12;28.02;;;16.58;;
40951;SDS011;26682;51.660;19.338;2023-03-23T05:18:55;26.08;;;16.67;;
40951;SDS011;26682;51.660;19.338;2023-03-23T05:21:39;23.75;;;14.73;;
40951;SDS011;26682;51.660;19.338;2023-03-23T05:24:20;17.25;;;12.60;;
40951;SDS011;26682;51.660;19.338;2023-03-23T05:27:02;27.00;;;16.20;;
40951;SDS011;26682;51.660;19.338;2023-03-23T05:29:47;28.45;;;19.85;;
40951;SDS011;26682;51.660;19.338;2023-03-23T05:32:30;19.05;;;13.82;;
40951;SDS011;26682;51.660;19.338;2023-03-23T05:35:19;19.85;;;12.80;;
40951;SDS011;26682;51.660;19.338;2023-03-23T05:38:04;29.65;;;21.15;;
40951;SDS011;26682;51.660;19.338;2023-03-23T05:40:46;21.13;;;14.50;;
40951;SDS011;26682;51.660;19.338;2023-03-23T05:43:30;16.27;;;11.75;;
40951;SDS011;26682;51.660;19.338;2023-03-23T05:46:22;23.88;;;12.98;;
40951;SDS011;26682;51.660;19.338;2023-03-23T05:49:04;20.27;;;12.55;;
40951;SDS011;26682;51.660;19.338;2023-03-23T05:51:52;15.80;;;11.73;;
40951;SDS011;26682;51.660;19.338;2023-03-23T05:54:34;22.73;;;14.13;;
40951;SDS011;26682;51.660;19.338;2023-03-23T05:57:16;16.77;;;12.68;;
40951;SDS011;26682;51.660;19.338;2023-03-23T06:03:11;22.73;;;16.23;;
40951;SDS011;26682;51.660;19.338;2023-03-23T06:06:20;19.45;;;13.82;;
40951;SDS011;26682;51.660;19.338;2023-03-23T06:09:17;17.45;;;11.98;;
40951;SDS011;26682;51.660;19.338;2023-03-23T06:12:22;24.70;;;13.60;;
40951;SDS011;26682;51.660;19.338;2023-03-23T06:15:27;17.50;;;13.00;;
40951;SDS011;26682;51.660;19.338;2023-03-23T06:18:14;16.73;;;11.32;;
40951;SDS011;26682;51.660;19.338;2023-03-23T06:21:20;17.02;;;11.48;;
40951;SDS011;26682;51.660;19.338;2023-03-23T06:24:26;20.90;;;11.50;;
40951;SDS011;26682;51.660;19.338;2023-03-23T06:27:08;21.33;;;12.27;;
40951;SDS011;26682;51.660;19.338;2023-03-23T06:29:50;25.02;;;14.15;;
40951;SDS011;26682;51.660;19.338;2023-03-23T06:32:31;26.83;;;14.50;;
40951;SDS011;26682;51.660;19.338;2023-03-23T06:35:15;21.23;;;14.27;;
40951;SDS011;26682;51.660;19.338;2023-03-23T06:38:08;24.00;;;15.73;;
40951;SDS011;26682;51.660;19.338;2023-03-23T06:40:58;28.38;;;16.52;;
40951;SDS011;26682;51.660;19.338;2023-03-23T06:43:40;26.90;;;16.67;;
40951;SDS011;26682;51.660;19.338;2023-03-23T06:46:32;27.88;;;15.68;;
40951;SDS011;26682;51.660;19.338;2023-03-23T06:49:35;19.00;;;13.02;;
40951;SDS011;26682;51.660;19.338;2023-03-23T06:52:29;19.58;;;14.63;;
40951;SDS011;26682;51.660;19.338;2023-03-23T06:55:12;22.08;;;14.30;;
40951;SDS011;26682;51.660;19.338;2023-03-23T06:57:54;18.65;;;11.88;;
40951;SDS011;26682;51.660;19.338;2023-03-23T07:00:35;25.90;;;16.77;;
40951;SDS011;26682;51.660;19.338;2023-03-23T07:03:18;26.63;;;18.40;;
40951;SDS011;26682;51.660;19.338;2023-03-23T07:06:00;32.90;;;17.05;;
40951;SDS011;26682;51.660;19.338;2023-03-23T07:08:46;19.38;;;13.30;;
40951;SDS011;26682;51.660;19.338;2023-03-23T07:11:32;26.00;;;14.40;;
40951;SDS011;26682;51.660;19.338;2023-03-23T07:14:19;26.27;;;15.55;;
40951;SDS011;26682;51.660;19.338;2023-03-23T07:17:03;20.42;;;12.32;;
40951;SDS011;26682;51.660;19.338;2023-03-23T07:19:48;18.65;;;11.65;;
40951;SDS011;26682;51.660;19.338;2023-03-23T07:22:30;16.60;;;10.60;;
40951;SDS011;26682;51.660;19.338;2023-03-23T07:25:21;16.23;;;11.75;;
40951;SDS011;26682;51.660;19.338;2023-03-23T07:28:05;14.13;;;9.52;;
40951;SDS011;26682;51.660;19.338;2023-03-23T07:30:47;14.38;;;9.95;;
40951;SDS011;26682;51.660;19.338;2023-03-23T07:33:28;16.80;;;9.40;;
40951;SDS011;26682;51.660;19.338;2023-03-23T07:36:12;13.80;;;8.95;;
40951;SDS011;26682;51.660;19.338;2023-03-23T07:38:53;13.70;;;8.98;;
40951;SDS011;26682;51.660;19.338;2023-03-23T07:41:34;12.32;;;8.57;;
40951;SDS011;26682;51.660;19.338;2023-03-23T07:44:31;14.90;;;8.15;;
40951;SDS011;26682;51.660;19.338;2023-03-23T07:47:12;15.00;;;8.13;;
40951;SDS011;26682;51.660;19.338;2023-03-23T07:49:59;9.77;;;6.57;;
40951;SDS011;26682;51.660;19.338;2023-03-23T07:52:46;9.77;;;6.15;;
40951;SDS011;26682;51.660;19.338;2023-03-23T07:55:31;8.73;;;6.25;;
40951;SDS011;26682;51.660;19.338;2023-03-23T07:58:26;12.38;;;6.15;;
40951;SDS011;26682;51.660;19.338;2023-03-23T08:01:10;12.55;;;6.70;;
40951;SDS011;26682;51.660;19.338;2023-03-23T08:03:52;16.80;;;7.50;;
40951;SDS011;26682;51.660;19.338;2023-03-23T08:06:51;14.25;;;6.28;;
40951;SDS011;26682;51.660;19.338;2023-03-23T08:09:55;8.25;;;6.05;;
40951;SDS011;26682;51.660;19.338;2023-03-23T08:12:57;10.40;;;6.00;;
40951;SDS011;26682;51.660;19.338;2023-03-23T08:15:58;10.07;;;6.18;;
40951;SDS011;26682;51.660;19.338;2023-03-23T08:19:02;11.40;;;6.00;;
40951;SDS011;26682;51.660;19.338;2023-03-23T08:22:04;10.88;;;5.55;;
40951;SDS011;26682;51.660;19.338;2023-03-23T08:25:12;10.43;;;5.32;;
40951;SDS011;26682;51.660;19.338;2023-03-23T08:28:18;10.68;;;5.80;;
40951;SDS011;26682;51.660;19.338;2023-03-23T08:31:24;9.30;;;5.55;;
40951;SDS011;26682;51.660;19.338;2023-03-23T08:34:20;8.18;;;5.40;;
40951;SDS011;26682;51.660;19.338;2023-03-23T08:37:20;7.47;;;4.10;;
40951;SDS011;26682;51.660;19.338;2023-03-23T08:40:23;9.63;;;4.85;;
40951;SDS011;26682;51.660;19.338;2023-03-23T08:43:14;6.03;;;4.20;;
40951;SDS011;26682;51.660;19.338;2023-03-23T08:46:22;9.55;;;4.47;;
40951;SDS011;26682;51.660;19.338;2023-03-23T08:49:28;6.43;;;4.38;;
40951;SDS011;26682;51.660;19.338;2023-03-23T08:52:39;10.10;;;4.68;;
40951;SDS011;26682;51.660;19.338;2023-03-23T08:55:53;5.18;;;3.97;;
40951;SDS011;26682;51.660;19.338;2023-03-23T08:58:55;7.47;;;3.88;;
40951;SDS011;26682;51.660;19.338;2023-03-23T09:01:48;10.00;;;4.10;;
40951;SDS011;26682;51.660;19.338;2023-03-23T09:04:48;9.00;;;4.10;;
40951;SDS011;26682;51.660;19.338;2023-03-23T09:07:50;8.57;;;3.58;;
40951;SDS011;26682;51.660;19.338;2023-03-23T09:10:32;8.48;;;3.47;;
40951;SDS011;26682;51.660;19.338;2023-03-23T09:13:13;8.57;;;3.75;;
40951;SDS011;26682;51.660;19.338;2023-03-23T09:15:55;10.50;;;4.22;;
40951;SDS011;26682;51.660;19.338;2023-03-23T09:18:38;5.30;;;3.60;;
40951;SDS011;26682;51.660;19.338;2023-03-23T09:21:19;4.38;;;3.33;;
40951;SDS011;26682;51.660;19.338;2023-03-23T09:24:00;6.57;;;3.50;;
40951;SDS011;26682;51.660;19.338;2023-03-23T09:26:42;7.97;;;3.13;;
40951;SDS011;26682;51.660;19.338;2023-03-23T09:29:23;7.07;;;2.80;;
40951;SDS011;26682;51.660;19.338;2023-03-23T09:32:06;11.88;;;3.35;;
40951;SDS011;26682;51.660;19.338;2023-03-23T09:34:48;8.82;;;3.85;;
40951;SDS011;26682;51.660;19.338;2023-03-23T09:37:30;7.22;;;4.78;;
40951;SDS011;26682;51.660;19.338;2023-03-23T09:40:14;5.93;;;2.80;;
40951;SDS011;26682;51.660;19.338;2023-03-23T09:46:22;8.65;;;3.22;;
40951;SDS011;26682;51.660;19.338;2023-03-23T09:49:32;7.00;;;2.83;;
40951;SDS011;26682;51.660;19.338;2023-03-23T09:52:23;11.27;;;3.42;;
40951;SDS011;26682;51.660;19.338;2023-03-23T09:55:16;9.45;;;3.20;;
40951;SDS011;26682;51.660;19.338;2023-03-23T10:04:09;9.40;;;3.05;;
40951;SDS011;26682;51.660;19.338;2023-03-23T10:07:09;5.45;;;3.30;;
40951;SDS011;26682;51.660;19.338;2023-03-23T10:09:59;4.93;;;3.00;;
40951;SDS011;26682;51.660;19.338;2023-03-23T10:15:44;5.25;;;2.58;;
40951;SDS011;26682;51.660;19.338;2023-03-23T10:18:36;6.72;;;3.35;;
40951;SDS011;26682;51.660;19.338;2023-03-23T10:21:22;17.17;;;3.85;;
40951;SDS011;26682;51.660;19.338;2023-03-23T10:24:07;8.60;;;5.78;;
40951;SDS011;26682;51.660;19.338;2023-03-23T10:29:52;10.90;;;3.72;;
40951;SDS011;26682;51.660;19.338;2023-03-23T10:33:02;11.20;;;7.20;;
40951;SDS011;26682;51.660;19.338;2023-03-23T10:35:47;22.45;;;13.55;;
40951;SDS011;26682;51.660;19.338;2023-03-23T10:38:55;11.23;;;4.65;;
40951;SDS011;26682;51.660;19.338;2023-03-23T10:41:38;62.45;;;8.70;;
40951;SDS011;26682;51.660;19.338;2023-03-23T10:44:20;14.00;;;6.32;;
40951;SDS011;26682;51.660;19.338;2023-03-23T10:47:08;21.23;;;7.47;;
40951;SDS011;26682;51.660;19.338;2023-03-23T10:49:54;65.07;;;7.22;;
40951;SDS011;26682;51.660;19.338;2023-03-23T10:52:42;17.25;;;5.07;;
40951;SDS011;26682;51.660;19.338;2023-03-23T10:55:34;17.00;;;6.80;;
40951;SDS011;26682;51.660;19.338;2023-03-23T11:01:10;15.20;;;5.43;;
40951;SDS011;26682;51.660;19.338;2023-03-23T11:03:53;7.00;;;4.70;;
40951;SDS011;26682;51.660;19.338;2023-03-23T11:06:34;8.85;;;5.38;;
40951;SDS011;26682;51.660;19.338;2023-03-23T11:09:22;6.40;;;4.10;;
40951;SDS011;26682;51.660;19.338;2023-03-23T11:12:32;10.15;;;3.97;;
40951;SDS011;26682;51.660;19.338;2023-03-23T11:15:29;6.85;;;3.58;;
40951;SDS011;26682;51.660;19.338;2023-03-23T11:18:23;22.52;;;4.30;;
40951;SDS011;26682;51.660;19.338;2023-03-23T11:21:07;12.13;;;4.20;;
40951;SDS011;26682;51.660;19.338;2023-03-23T11:23:55;18.60;;;5.15;;
40951;SDS011;26682;51.660;19.338;2023-03-23T11:26:40;7.95;;;3.65;;
40951;SDS011;26682;51.660;19.338;2023-03-23T11:29:26;6.88;;;3.88;;
40951;SDS011;26682;51.660;19.338;2023-03-23T11:32:14;11.68;;;3.58;;
40951;SDS011;26682;51.660;19.338;2023-03-23T11:34:57;16.48;;;4.25;;
40951;SDS011;26682;51.660;19.338;2023-03-23T11:37:47;7.95;;;3.65;;
40951;SDS011;26682;51.660;19.338;2023-03-23T11:40:43;14.38;;;3.45;;
40951;SDS011;26682;51.660;19.338;2023-03-23T11:43:28;14.23;;;3.40;;
40951;SDS011;26682;51.660;19.338;2023-03-23T11:49:12;20.52;;;4.63;;
40951;SDS011;26682;51.660;19.338;2023-03-23T11:52:16;17.05;;;6.80;;
40951;SDS011;26682;51.660;19.338;2023-03-23T11:55:09;7.47;;;3.67;;
40951;SDS011;26682;51.660;19.338;2023-03-23T11:57:55;8.52;;;2.97;;
40951;SDS011;26682;51.660;19.338;2023-03-23T12:04:00;5.30;;;3.00;;
40951;SDS011;26682;51.660;19.338;2023-03-23T12:09:43;7.78;;;3.50;;
40951;SDS011;26682;51.660;19.338;2023-03-23T12:15:19;10.70;;;2.97;;
40951;SDS011;26682;51.660;19.338;2023-03-23T12:18:17;5.68;;;2.85;;
40951;SDS011;26682;51.660;19.338;2023-03-23T12:24:13;4.65;;;2.78;;
40951;SDS011;26682;51.660;19.338;2023-03-23T12:33:27;6.60;;;3.85;;
40951;SDS011;26682;51.660;19.338;2023-03-23T12:36:29;6.97;;;3.25;;
40951;SDS011;26682;51.660;19.338;2023-03-23T12:39:36;3.65;;;3.22;;
40951;SDS011;26682;51.660;19.338;2023-03-23T12:48:35;5.80;;;4.40;;
40951;SDS011;26682;51.660;19.338;2023-03-23T12:51:27;5.50;;;3.10;;
40951;SDS011;26682;51.660;19.338;2023-03-23T12:54:29;4.57;;;3.35;;
40951;SDS011;26682;51.660;19.338;2023-03-23T13:00:22;4.25;;;2.80;;
40951;SDS011;26682;51.660;19.338;2023-03-23T13:03:23;7.00;;;3.45;;
40951;SDS011;26682;51.660;19.338;2023-03-23T13:06:25;4.60;;;3.00;;
40951;SDS011;26682;51.660;19.338;2023-03-23T13:12:20;7.15;;;4.15;;
40951;SDS011;26682;51.660;19.338;2023-03-23T13:17:54;7.72;;;4.15;;
40951;SDS011;26682;51.660;19.338;2023-03-23T13:24:05;5.85;;;3.08;;
40951;SDS011;26682;51.660;19.338;2023-03-23T13:26:51;4.65;;;2.75;;
40951;SDS011;26682;51.660;19.338;2023-03-23T13:29:36;9.52;;;3.22;;
40951;SDS011;26682;51.660;19.338;2023-03-23T13:35:13;7.70;;;2.60;;
40951;SDS011;26682;51.660;19.338;2023-03-23T13:37:58;3.92;;;3.00;;
40951;SDS011;26682;51.660;19.338;2023-03-23T13:40:42;4.88;;;2.55;;
40951;SDS011;26682;51.660;19.338;2023-03-23T13:43:26;17.70;;;3.28;;
40951;SDS011;26682;51.660;19.338;2023-03-23T13:49:13;4.28;;;2.65;;
40951;SDS011;26682;51.660;19.338;2023-03-23T13:52:16;7.68;;;2.90;;
40951;SDS011;26682;51.660;19.338;2023-03-23T13:58:25;5.75;;;2.80;;
40951;SDS011;26682;51.660;19.338;2023-03-23T14:01:14;4.28;;;2.70;;
40951;SDS011;26682;51.660;19.338;2023-03-23T14:03:59;9.70;;;2.78;;
40951;SDS011;26682;51.660;19.338;2023-03-23T14:06:42;5.40;;;2.80;;
40951;SDS011;26682;51.660;19.338;2023-03-23T14:09:36;3.75;;;3.10;;
40951;SDS011;26682;51.660;19.338;2023-03-23T14:12:22;3.65;;;2.15;;
40951;SDS011;26682;51.660;19.338;2023-03-23T14:15:11;6.88;;;2.60;;
40951;SDS011;26682;51.660;19.338;2023-03-23T14:17:55;8.30;;;2.63;;
40951;SDS011;26682;51.660;19.338;2023-03-23T14:20:36;4.07;;;2.13;;
40951;SDS011;26682;51.660;19.338;2023-03-23T14:23:20;4.85;;;2.60;;
40951;SDS011;26682;51.660;19.338;2023-03-23T14:26:06;5.72;;;1.90;;
40951;SDS011;26682;51.660;19.338;2023-03-23T14:28:57;3.80;;;2.58;;
40951;SDS011;26682;51.660;19.338;2023-03-23T14:31:40;9.60;;;2.78;;
40951;SDS011;26682;51.660;19.338;2023-03-23T14:34:22;5.95;;;2.35;;
40951;SDS011;26682;51.660;19.338;2023-03-23T14:37:12;7.60;;;2.30;;
40951;SDS011;26682;51.660;19.338;2023-03-23T14:39:55;5.25;;;2.50;;
40951;SDS011;26682;51.660;19.338;2023-03-23T14:42:39;52.22;;;5.25;;
40951;SDS011;26682;51.660;19.338;2023-03-23T14:45:21;4.13;;;2.53;;
40951;SDS011;26682;51.660;19.338;2023-03-23T14:48:05;6.47;;;3.42;;
40951;SDS011;26682;51.660;19.338;2023-03-23T14:50:51;6.80;;;2.90;;
40951;SDS011;26682;51.660;19.338;2023-03-23T14:53:38;8.00;;;3.42;;
40951;SDS011;26682;51.660;19.338;2023-03-23T14:56:20;6.65;;;2.80;;
40951;SDS011;26682;51.660;19.338;2023-03-23T14:59:09;6.03;;;2.42;;
40951;SDS011;26682;51.660;19.338;2023-03-23T15:01:51;9.43;;;2.92;;
40951;SDS011;26682;51.660;19.338;2023-03-23T15:04:33;9.32;;;3.00;;
40951;SDS011;26682;51.660;19.338;2023-03-23T15:07:15;13.30;;;3.63;;
40951;SDS011;26682;51.660;19.338;2023-03-23T15:09:58;8.02;;;6.13;;
40951;SDS011;26682;51.660;19.338;2023-03-23T15:12:40;5.63;;;4.00;;
40951;SDS011;26682;51.660;19.338;2023-03-23T15:15:26;7.47;;;3.80;;
40951;SDS011;26682;51.660;19.338;2023-03-23T15:21:20;17.98;;;4.05;;
40951;SDS011;26682;51.660;19.338;2023-03-23T15:27:29;24.92;;;5.00;;
40951;SDS011;26682;51.660;19.338;2023-03-23T15:33:05;8.95;;;3.58;;
40951;SDS011;26682;51.660;19.338;2023-03-23T15:35:54;55.38;;;5.93;;
40951;SDS011;26682;51.660;19.338;2023-03-23T15:38:37;12.63;;;3.83;;
40951;SDS011;26682;51.660;19.338;2023-03-23T15:41:23;13.18;;;6.28;;
40951;SDS011;26682;51.660;19.338;2023-03-23T15:44:12;24.00;;;18.73;;
40951;SDS011;26682;51.660;19.338;2023-03-23T15:47:04;8.18;;;3.83;;
40951;SDS011;26682;51.660;19.338;2023-03-23T15:50:04;7.55;;;4.28;;
40951;SDS011;26682;51.660;19.338;2023-03-23T15:52:52;4.78;;;3.22;;
40951;SDS011;26682;51.660;19.338;2023-03-23T15:55:37;34.78;;;4.50;;
40951;SDS011;26682;51.660;19.338;2023-03-23T15:58:19;4.88;;;2.72;;
40951;SDS011;26682;51.660;19.338;2023-03-23T16:01:03;4.28;;;2.58;;
40951;SDS011;26682;51.660;19.338;2023-03-23T16:06:48;5.03;;;2.60;;
40951;SDS011;26682;51.660;19.338;2023-03-23T16:09:32;7.22;;;3.70;;
40951;SDS011;26682;51.660;19.338;2023-03-23T16:12:15;7.57;;;3.20;;
40951;SDS011;26682;51.660;19.338;2023-03-23T16:14:58;10.93;;;6.68;;
40951;SDS011;26682;51.660;19.338;2023-03-23T16:17:41;10.02;;;5.13;;
40951;SDS011;26682;51.660;19.338;2023-03-23T16:20:24;6.32;;;5.18;;
40951;SDS011;26682;51.660;19.338;2023-03-23T16:23:07;6.30;;;4.18;;
40951;SDS011;26682;51.660;19.338;2023-03-23T16:25:50;4.32;;;3.40;;
40951;SDS011;26682;51.660;19.338;2023-03-23T16:28:32;7.43;;;5.30;;
40951;SDS011;26682;51.660;19.338;2023-03-23T16:31:15;6.68;;;4.22;;
40951;SDS011;26682;51.660;19.338;2023-03-23T16:33:58;7.28;;;4.80;;
40951;SDS011;26682;51.660;19.338;2023-03-23T16:36:40;8.95;;;5.15;;
40951;SDS011;26682;51.660;19.338;2023-03-23T16:39:22;13.10;;;5.10;;
40951;SDS011;26682;51.660;19.338;2023-03-23T16:42:05;15.07;;;6.43;;
40951;SDS011;26682;51.660;19.338;2023-03-23T16:44:47;13.90;;;6.15;;
40951;SDS011;26682;51.660;19.338;2023-03-23T16:47:31;14.75;;;6.47;;
40951;SDS011;26682;51.660;19.338;2023-03-23T16:50:14;14.38;;;7.20;;
40951;SDS011;26682;51.660;19.338;2023-03-23T16:52:58;19.17;;;7.75;;
40951;SDS011;26682;51.660;19.338;2023-03-23T16:55:41;12.95;;;6.53;;
40951;SDS011;26682;51.660;19.338;2023-03-23T16:58:28;19.77;;;10.45;;
40951;SDS011;26682;51.660;19.338;2023-03-23T17:01:11;21.60;;;12.30;;
40951;SDS011;26682;51.660;19.338;2023-03-23T17:03:54;25.50;;;14.23;;
40951;SDS011;26682;51.660;19.338;2023-03-23T17:06:37;23.58;;;15.02;;
40951;SDS011;26682;51.660;19.338;2023-03-23T17:09:19;19.65;;;12.70;;
40951;SDS011;26682;51.660;19.338;2023-03-23T17:12:02;25.10;;;11.65;;
40951;SDS011;26682;51.660;19.338;2023-03-23T17:14:44;18.85;;;9.88;;
40951;SDS011;26682;51.660;19.338;2023-03-23T17:17:27;14.60;;;8.98;;
40951;SDS011;26682;51.660;19.338;2023-03-23T17:20:10;14.40;;;10.32;;
40951;SDS011;26682;51.660;19.338;2023-03-23T17:22:54;20.17;;;9.98;;
40951;SDS011;26682;51.660;19.338;2023-03-23T17:25:36;22.02;;;9.98;;
40951;SDS011;26682;51.660;19.338;2023-03-23T17:28:18;20.90;;;11.13;;
40951;SDS011;26682;51.660;19.338;2023-03-23T17:31:01;21.63;;;9.70;;
40951;SDS011;26682;51.660;19.338;2023-03-23T17:33:44;19.70;;;10.35;;
40951;SDS011;26682;51.660;19.338;2023-03-23T17:36:26;16.48;;;10.90;;
40951;SDS011;26682;51.660;19.338;2023-03-23T17:39:09;19.40;;;13.25;;
40951;SDS011;26682;51.660;19.338;2023-03-23T17:41:51;24.60;;;14.90;;
40951;SDS011;26682;51.660;19.338;2023-03-23T17:44:34;17.73;;;12.52;;
40951;SDS011;26682;51.660;19.338;2023-03-23T17:47:16;24.05;;;13.88;;
40951;SDS011;26682;51.660;19.338;2023-03-23T17:49:59;25.23;;;13.63;;
40951;SDS011;26682;51.660;19.338;2023-03-23T17:55:39;24.25;;;13.95;;